createdAt,value
2023-03-24T00:01:30.469Z,13.10
2023-03-24T00:03:59.216Z,13.10
2023-03-24T00:06:36.920Z,13.10
2023-03-24T00:09:06.242Z,13.10
2023-03-24T00:11:39.562Z,13.10
2023-03-24T00:14:12.064Z,13.10
2023-03-24T00:16:48.119Z,13.10
2023-03-24T00:19:16.307Z,13.10
2023-03-24T00:21:45.810Z,13.10
2023-03-24T00:24:14.918Z,13.20
2023-03-24T00:26:43.123Z,13.20
2023-03-24T00:29:15.519Z,13.30
2023-03-24T00:31:43.766Z,13.30
2023-03-24T00:34:13.996Z,13.30
2023-03-24T00:36:42.430Z,13.30
2023-03-24T00:39:12.251Z,13.30
2023-03-24T00:41:43.510Z,13.30
2023-03-24T00:44:17.901Z,13.30
2023-03-24T00:46:52.091Z,13.20
2023-03-24T00:49:25.979Z,13.20
2023-03-24T00:51:56.530Z,13.20
2023-03-24T00:54:31.946Z,13.20
2023-03-24T00:57:03.204Z,13.10
2023-03-24T00:59:32.967Z,13.10
2023-03-24T01:02:01.140Z,13.00
2023-03-24T01:04:30.988Z,13.00
2023-03-24T01:06:59.949Z,13.00
2023-03-24T01:09:29.443Z,12.90
2023-03-24T01:11:59.969Z,12.90
2023-03-24T01:14:28.567Z,12.90
2023-03-24T01:16:58.386Z,12.80
2023-03-24T01:19:26.718Z,12.80
2023-03-24T01:21:54.847Z,12.80
2023-03-24T01:24:28.005Z,12.70
2023-03-24T01:26:57.560Z,12.70
2023-03-24T01:29:26.009Z,12.70
2023-03-24T01:31:55.059Z,12.70
2023-03-24T01:34:24.907Z,12.70
2023-03-24T01:36:53.044Z,12.70
2023-03-24T01:39:22.037Z,12.60
2023-03-24T01:41:50.531Z,12.60
2023-03-24T01:44:30.001Z,12.60
2023-03-24T01:47:00.516Z,12.50
2023-03-24T01:49:33.754Z,12.40
2023-03-24T01:52:05.779Z,12.40
2023-03-24T01:54:39.986Z,12.40
2023-03-24T01:57:16.806Z,12.30
2023-03-24T01:59:50.732Z,12.30
2023-03-24T02:02:45.029Z,12.20
2023-03-24T02:05:16.982Z,12.20
2023-03-24T02:07:52.750Z,12.10
2023-03-24T02:10:24.484Z,12.00
2023-03-24T02:12:56.981Z,12.00
2023-03-24T02:15:32.592Z,11.90
2023-03-24T02:18:11.018Z,11.90
2023-03-24T02:21:21.045Z,11.80
2023-03-24T02:24:28.726Z,11.80
2023-03-24T02:27:08.049Z,11.70
2023-03-24T02:30:18.796Z,11.60
2023-03-24T02:33:49.662Z,11.60
2023-03-24T02:36:58.018Z,11.50
2023-03-24T02:39:52.874Z,11.50
2023-03-24T02:42:32.049Z,11.40
2023-03-24T02:45:09.702Z,11.40
2023-03-24T02:47:48.371Z,11.40
2023-03-24T02:50:29.012Z,11.40
2023-03-24T02:53:09.015Z,11.40
2023-03-24T02:55:54.269Z,11.40
2023-03-24T02:58:34.000Z,11.40
2023-03-24T03:01:07.385Z,11.50
2023-03-24T03:03:57.142Z,11.40
2023-03-24T03:06:31.126Z,11.50
2023-03-24T03:09:04.310Z,11.50
2023-03-24T03:11:34.027Z,11.50
2023-03-24T03:14:05.996Z,11.50
2023-03-24T03:16:40.970Z,11.50
2023-03-24T03:19:12.889Z,11.50
2023-03-24T03:21:45.283Z,11.40
2023-03-24T03:24:17.752Z,11.50
2023-03-24T03:26:51.012Z,11.40
2023-03-24T03:29:23.041Z,11.40
2023-03-24T03:31:59.302Z,11.40
2023-03-24T03:34:36.115Z,11.40
2023-03-24T03:37:09.105Z,11.30
2023-03-24T03:39:47.035Z,11.40
2023-03-24T03:42:18.055Z,11.40
2023-03-24T03:44:46.816Z,11.40
2023-03-24T03:47:19.956Z,11.30
2023-03-24T03:49:48.542Z,11.30
2023-03-24T03:52:17.773Z,11.30
2023-03-24T03:54:48.051Z,11.40
2023-03-24T03:57:19.776Z,11.30
2023-03-24T04:00:16.068Z,11.40
2023-03-24T04:03:14.366Z,11.30
2023-03-24T04:05:49.025Z,11.30
2023-03-24T04:08:29.763Z,11.30
2023-03-24T04:11:41.085Z,11.40
2023-03-24T04:14:32.813Z,11.40
2023-03-24T04:17:33.104Z,11.40
2023-03-24T04:20:13.095Z,11.40
2023-03-24T04:23:03.067Z,11.50
2023-03-24T04:25:46.707Z,11.50
2023-03-24T04:28:26.337Z,11.50
2023-03-24T04:31:03.647Z,11.50
2023-03-24T04:33:41.552Z,11.50
2023-03-24T04:36:22.174Z,11.60
2023-03-24T04:39:29.569Z,11.60
2023-03-24T04:42:05.072Z,11.60
2023-03-24T04:44:35.457Z,11.60
2023-03-24T04:47:32.147Z,11.60
2023-03-24T04:50:31.436Z,11.60
2023-03-24T04:53:02.657Z,11.60
2023-03-24T04:55:46.178Z,11.70
2023-03-24T04:58:16.155Z,11.70
2023-03-24T05:00:45.173Z,11.70
2023-03-24T05:03:19.046Z,11.80
2023-03-24T05:05:49.062Z,11.70
2023-03-24T05:08:20.100Z,11.80
2023-03-24T05:10:49.487Z,11.80
2023-03-24T05:13:18.308Z,11.80
2023-03-24T05:15:51.154Z,11.80
2023-03-24T05:18:32.318Z,11.90
2023-03-24T05:21:02.089Z,11.90
2023-03-24T05:23:35.662Z,11.90
2023-03-24T05:26:04.169Z,12.00
2023-03-24T05:28:36.292Z,12.00
2023-03-24T05:31:05.462Z,12.10
2023-03-24T05:33:45.609Z,12.10
2023-03-24T05:36:18.025Z,12.20
2023-03-24T05:38:55.089Z,12.20
2023-03-24T05:41:26.926Z,12.20
2023-03-24T05:43:56.927Z,12.20
2023-03-24T05:46:26.600Z,12.30
2023-03-24T05:48:58.442Z,12.40
2023-03-24T05:51:32.237Z,12.40
2023-03-24T05:54:06.528Z,12.50
2023-03-24T05:56:45.110Z,12.50
2023-03-24T05:59:31.896Z,12.60
2023-03-24T06:02:18.178Z,12.60
2023-03-24T06:05:14.115Z,12.60
2023-03-24T06:07:42.881Z,12.70
2023-03-24T06:10:14.545Z,12.70
2023-03-24T06:12:49.308Z,12.70
2023-03-24T06:15:22.436Z,12.80
2023-03-24T06:17:54.815Z,12.80
2023-03-24T06:20:32.098Z,12.80
2023-03-24T06:23:20.183Z,12.90
2023-03-24T06:26:22.618Z,13.00
2023-03-24T06:28:55.717Z,13.00
2023-03-24T06:31:30.459Z,13.00
2023-03-24T06:33:58.932Z,13.10
2023-03-24T06:36:29.233Z,13.20
2023-03-24T06:38:57.999Z,13.20
2023-03-24T06:41:27.961Z,13.20
2023-03-24T06:44:01.284Z,13.20
2023-03-24T06:46:31.264Z,13.30
2023-03-24T06:48:59.694Z,13.30
2023-03-24T06:51:30.173Z,13.40
2023-03-24T06:53:59.084Z,13.40
2023-03-24T06:56:31.210Z,13.40
2023-03-24T06:59:02.617Z,13.40
2023-03-24T07:01:36.142Z,13.40
2023-03-24T07:04:30.546Z,13.50
2023-03-24T07:07:34.118Z,13.50
2023-03-24T07:10:25.777Z,13.60
2023-03-24T07:12:54.213Z,13.60
2023-03-24T07:15:24.238Z,13.70
2023-03-24T07:17:53.097Z,13.60
2023-03-24T07:20:33.011Z,13.60
2023-03-24T07:23:25.168Z,13.60
2023-03-24T07:26:12.193Z,13.60
2023-03-24T07:28:50.250Z,13.50
2023-03-24T07:31:38.616Z,13.50
2023-03-24T07:34:10.519Z,13.50
2023-03-24T07:36:41.403Z,13.50
2023-03-24T07:39:16.726Z,13.50
2023-03-24T07:41:45.577Z,13.50
2023-03-24T07:44:27.625Z,13.60
2023-03-24T07:46:57.296Z,13.70
2023-03-24T07:49:26.070Z,13.80
2023-03-24T07:52:10.855Z,13.80
2023-03-24T07:54:54.251Z,13.90
2023-03-24T07:57:48.340Z,13.90
2023-03-24T08:03:28.474Z,14.00
2023-03-24T08:06:19.846Z,14.10
2023-03-24T08:08:52.295Z,14.10
2023-03-24T08:11:23.102Z,14.30
2023-03-24T08:13:51.328Z,14.40
2023-03-24T08:16:19.467Z,14.40
2023-03-24T08:18:50.768Z,14.40
2023-03-24T08:21:18.920Z,14.50
2023-03-24T08:23:52.245Z,14.60
2023-03-24T08:26:22.599Z,14.60
2023-03-24T08:28:51.714Z,14.60
2023-03-24T08:31:20.470Z,14.60
2023-03-24T08:33:48.710Z,14.60
2023-03-24T08:36:19.009Z,14.60
2023-03-24T08:38:48.184Z,14.60
2023-03-24T08:41:20.636Z,14.60
2023-03-24T08:43:50.371Z,14.70
2023-03-24T08:46:18.772Z,14.70
2023-03-24T08:48:49.097Z,14.70
2023-03-24T08:51:18.807Z,14.60
2023-03-24T08:53:47.033Z,14.50
2023-03-24T08:56:16.273Z,14.40
2023-03-24T08:58:44.436Z,14.40
2023-03-24T09:01:15.149Z,14.30
2023-03-24T09:03:45.188Z,14.30
2023-03-24T09:06:13.873Z,14.30
2023-03-24T09:08:43.211Z,14.30
2023-03-24T09:11:16.545Z,14.40
2023-03-24T09:13:46.066Z,14.60
2023-03-24T09:16:16.924Z,14.70
2023-03-24T09:18:46.213Z,14.80
2023-03-24T09:21:14.499Z,15.00
2023-03-24T09:23:44.274Z,15.20
2023-03-24T09:26:12.568Z,15.30
2023-03-24T09:28:40.679Z,15.50
2023-03-24T09:31:13.204Z,15.60
2023-03-24T09:33:42.806Z,15.80
2023-03-24T09:36:12.004Z,15.90
2023-03-24T09:38:42.217Z,16.10
2023-03-24T09:41:16.632Z,16.20
2023-03-24T09:43:49.008Z,16.30
2023-03-24T09:46:27.293Z,16.40
2023-03-24T09:48:57.877Z,16.30
2023-03-24T09:51:27.501Z,16.30
2023-03-24T09:54:05.750Z,16.30
2023-03-24T09:56:36.789Z,16.40
2023-03-24T09:59:11.350Z,16.50
2023-03-24T10:01:39.528Z,16.50
2023-03-24T10:04:19.498Z,16.40
2023-03-24T10:06:53.036Z,16.40
2023-03-24T10:09:27.301Z,16.50
2023-03-24T10:12:12.323Z,16.50
2023-03-24T10:14:55.239Z,16.50
2023-03-24T10:17:32.443Z,16.50
2023-03-24T10:20:12.465Z,16.50
2023-03-24T10:22:47.461Z,16.40
2023-03-24T10:25:22.731Z,16.30
2023-03-24T10:27:59.784Z,16.40
2023-03-24T10:30:30.883Z,16.30
2023-03-24T10:33:02.939Z,16.40
2023-03-24T10:35:36.020Z,16.40
2023-03-24T10:38:14.285Z,16.50
2023-03-24T10:40:43.246Z,16.50
2023-03-24T10:43:12.086Z,16.60
2023-03-24T10:45:45.384Z,16.60
2023-03-24T10:48:15.636Z,16.70
2023-03-24T10:50:49.305Z,16.70
2023-03-24T10:53:19.729Z,16.80
2023-03-24T10:55:48.982Z,16.90
2023-03-24T10:58:30.292Z,16.90
2023-03-24T11:01:00.069Z,16.90
2023-03-24T11:03:36.264Z,16.90
2023-03-24T11:06:06.995Z,17.00
2023-03-24T11:08:37.720Z,17.10
2023-03-24T11:11:29.353Z,17.20
2023-03-24T11:14:01.407Z,17.20
2023-03-24T11:16:33.345Z,17.30
2023-03-24T11:19:03.231Z,17.20
2023-03-24T11:21:38.124Z,17.20
2023-03-24T11:24:12.681Z,17.10
2023-03-24T11:26:46.273Z,17.10
2023-03-24T11:29:16.832Z,17.10
2023-03-24T11:31:55.333Z,17.00
2023-03-24T11:34:34.516Z,17.00
2023-03-24T11:37:07.010Z,17.00
2023-03-24T11:39:39.170Z,16.90
2023-03-24T11:42:16.701Z,16.90
2023-03-24T11:44:52.316Z,16.90
2023-03-24T11:47:28.573Z,16.90
2023-03-24T11:50:15.297Z,17.00
2023-03-24T11:52:48.552Z,17.00
2023-03-24T11:55:23.319Z,17.10
2023-03-24T11:57:59.263Z,17.20
2023-03-24T12:00:34.832Z,17.20
2023-03-24T12:03:32.935Z,17.30
2023-03-24T12:06:12.904Z,17.20
2023-03-24T12:08:54.359Z,17.30
2023-03-24T12:11:28.441Z,17.30
2023-03-24T12:13:58.798Z,17.30
2023-03-24T12:16:41.737Z,17.30
2023-03-24T12:19:30.137Z,17.40
2023-03-24T12:22:12.379Z,17.50
2023-03-24T12:24:56.317Z,17.70
2023-03-24T12:27:36.650Z,17.90
2023-03-24T12:30:17.844Z,18.10
2023-03-24T12:32:57.533Z,18.30
2023-03-24T12:35:42.200Z,18.60
2023-03-24T12:38:24.195Z,18.90
2023-03-24T12:41:15.452Z,19.20
2023-03-24T12:43:51.422Z,19.40
2023-03-24T12:46:46.543Z,19.70
2023-03-24T12:49:40.402Z,19.90
2023-03-24T12:52:23.308Z,20.10
2023-03-24T12:54:56.320Z,20.20
2023-03-24T12:57:28.278Z,20.30
2023-03-24T13:00:03.322Z,20.30
2023-03-24T13:02:38.049Z,20.20
2023-03-24T13:05:16.838Z,20.20
2023-03-24T13:07:47.512Z,20.30
2023-03-24T13:10:22.330Z,20.30
2023-03-24T13:12:57.320Z,20.30
2023-03-24T13:15:32.276Z,20.00
2023-03-24T13:18:09.228Z,20.00
2023-03-24T13:20:43.386Z,20.10
2023-03-24T13:23:44.887Z,19.90
2023-03-24T13:26:24.384Z,19.80
2023-03-24T13:29:02.387Z,19.90
2023-03-24T13:31:37.336Z,19.90
2023-03-24T13:34:13.362Z,19.80
2023-03-24T13:36:48.030Z,19.80
2023-03-24T13:39:20.719Z,19.70
2023-03-24T13:41:51.636Z,19.50
2023-03-24T13:44:23.754Z,19.50
2023-03-24T13:47:06.933Z,19.50
2023-03-24T13:49:40.736Z,19.30
2023-03-24T13:52:24.397Z,19.30
2023-03-24T13:54:58.117Z,19.30
2023-03-24T13:57:30.966Z,19.30
2023-03-24T14:00:12.382Z,19.30
2023-03-24T14:02:47.732Z,19.40
2023-03-24T14:05:41.797Z,19.40
2023-03-24T14:08:18.609Z,19.50
2023-03-24T14:10:48.859Z,19.60
2023-03-24T14:13:33.923Z,19.50
2023-03-24T14:16:44.461Z,19.50
2023-03-24T14:19:27.407Z,19.40
2023-03-24T14:22:10.422Z,19.40
2023-03-24T14:24:39.198Z,19.40
2023-03-24T14:27:37.448Z,19.30
2023-03-24T14:30:20.225Z,19.40
2023-03-24T14:32:53.546Z,19.30
2023-03-24T14:35:34.670Z,19.20
2023-03-24T14:38:06.181Z,19.20
2023-03-24T14:40:40.409Z,19.20
2023-03-24T14:43:23.687Z,19.40
2023-03-24T14:46:02.874Z,19.40
2023-03-24T14:48:53.251Z,19.40
2023-03-24T14:51:37.468Z,19.40
2023-03-24T14:54:08.410Z,19.40
2023-03-24T14:56:40.870Z,19.40
2023-03-24T14:59:18.992Z,19.50
2023-03-24T15:01:51.962Z,19.40
2023-03-24T15:04:21.783Z,19.30
2023-03-24T15:06:50.617Z,19.20
2023-03-24T15:09:19.880Z,19.20
2023-03-24T15:11:50.427Z,19.10
2023-03-24T15:14:25.214Z,19.10
2023-03-24T15:17:29.619Z,19.10
2023-03-24T15:19:59.232Z,19.00
2023-03-24T15:22:27.640Z,18.90
2023-03-24T15:24:59.594Z,18.90
2023-03-24T15:27:31.714Z,18.90
2023-03-24T15:30:01.488Z,18.90
2023-03-24T15:32:32.587Z,18.80
2023-03-24T15:35:06.680Z,18.80
2023-03-24T15:37:40.832Z,18.80
2023-03-24T15:40:38.053Z,18.70
2023-03-24T15:43:09.550Z,18.70
2023-03-24T15:45:51.043Z,18.70
2023-03-24T15:48:25.520Z,18.70
2023-03-24T15:51:00.946Z,18.70
2023-03-24T15:53:31.245Z,18.70
2023-03-24T15:56:08.463Z,18.70
2023-03-24T15:58:52.853Z,18.70
2023-03-24T16:01:30.622Z,18.60
2023-03-24T16:04:01.776Z,18.60
2023-03-24T16:06:38.566Z,18.60
2023-03-24T16:09:11.478Z,18.50
2023-03-24T16:11:40.246Z,18.40
2023-03-24T16:14:21.800Z,18.40
2023-03-24T16:16:50.440Z,18.40
2023-03-24T16:19:18.586Z,18.40
2023-03-24T16:21:49.467Z,18.40
2023-03-24T16:24:18.053Z,18.40
2023-03-24T16:26:46.174Z,18.40
2023-03-24T16:29:19.041Z,18.40
2023-03-24T16:31:52.472Z,18.40
2023-03-24T16:34:22.370Z,18.40
2023-03-24T16:36:56.593Z,18.40
2023-03-24T16:39:26.816Z,18.40
2023-03-24T16:41:55.225Z,18.20
2023-03-24T16:44:24.504Z,18.10
2023-03-24T16:46:57.418Z,17.80
2023-03-24T16:49:28.498Z,17.20
2023-03-24T16:51:58.020Z,16.40
2023-03-24T16:54:30.492Z,15.70
2023-03-24T16:56:58.628Z,15.40
2023-03-24T16:59:31.570Z,15.10
2023-03-24T17:02:05.842Z,15.10
2023-03-24T17:04:39.556Z,14.90
2023-03-24T17:07:10.474Z,14.80
2023-03-24T17:09:38.758Z,14.70
2023-03-24T17:12:07.238Z,14.60
2023-03-24T17:14:35.388Z,14.50
2023-03-24T17:17:04.624Z,14.50
2023-03-24T17:19:34.481Z,14.40
2023-03-24T17:22:04.724Z,14.30
2023-03-24T17:24:38.479Z,14.20
2023-03-24T17:27:18.811Z,14.20
2023-03-24T17:29:49.508Z,14.20
2023-03-24T17:32:18.195Z,14.20
2023-03-24T17:34:50.516Z,14.20
2023-03-24T17:37:19.489Z,14.20
2023-03-24T17:39:49.063Z,14.30
2023-03-24T17:42:17.522Z,14.20
2023-03-24T17:44:45.650Z,14.30
2023-03-24T17:47:19.538Z,14.30
2023-03-24T17:49:47.803Z,14.40
2023-03-24T17:52:16.156Z,14.40
2023-03-24T17:54:45.902Z,14.40
2023-03-24T17:57:15.581Z,14.50
2023-03-24T17:59:47.518Z,14.50
2023-03-24T18:02:17.586Z,14.50
2023-03-24T18:04:47.434Z,14.50
2023-03-24T18:07:15.757Z,14.50
2023-03-24T18:09:47.576Z,14.50
2023-03-24T18:12:17.689Z,14.50
2023-03-24T18:14:46.512Z,14.50
2023-03-24T18:17:14.680Z,14.50
2023-03-24T18:19:43.518Z,14.50
2023-03-24T18:22:15.459Z,14.50
2023-03-24T18:24:43.727Z,14.50
2023-03-24T18:27:12.015Z,14.50
2023-03-24T18:29:42.520Z,14.50
2023-03-24T18:32:11.043Z,14.50
2023-03-24T18:34:44.861Z,14.50
2023-03-24T18:37:16.476Z,14.50
2023-03-24T18:39:45.361Z,14.50
2023-03-24T18:42:13.666Z,14.50
2023-03-24T18:44:44.928Z,14.50
2023-03-24T18:47:13.607Z,14.50
2023-03-24T18:49:42.161Z,14.50
2023-03-24T18:52:10.359Z,14.50
2023-03-24T18:54:38.574Z,14.50
2023-03-24T18:57:07.051Z,14.40
2023-03-24T18:59:35.228Z,14.40
2023-03-24T19:02:08.462Z,14.50
2023-03-24T19:04:37.079Z,14.50
2023-03-24T19:07:08.079Z,14.50
2023-03-24T19:09:36.940Z,14.50
2023-03-24T19:12:05.480Z,14.50
2023-03-24T19:14:34.331Z,14.50
2023-03-24T19:17:03.027Z,14.50
2023-03-24T19:19:34.556Z,14.50
2023-03-24T19:22:02.846Z,14.50
2023-03-24T19:24:31.051Z,14.50
2023-03-24T19:27:02.696Z,14.50
2023-03-24T19:29:31.028Z,14.50
2023-03-24T19:31:59.136Z,14.50
2023-03-24T19:34:29.564Z,14.50
2023-03-24T19:36:59.126Z,14.40
2023-03-24T19:39:30.495Z,14.40
2023-03-24T19:41:59.800Z,14.40
2023-03-24T19:44:27.979Z,14.40
2023-03-24T19:46:56.323Z,14.40
2023-03-24T19:49:24.610Z,14.40
2023-03-24T19:51:52.722Z,14.40
2023-03-24T19:54:22.513Z,14.40
2023-03-24T19:56:51.340Z,14.40
2023-03-24T19:59:19.637Z,14.40
2023-03-24T20:01:47.893Z,14.40
2023-03-24T20:04:17.441Z,14.40
2023-03-24T20:06:46.608Z,14.40
2023-03-24T20:09:14.817Z,14.40
2023-03-24T20:11:47.895Z,14.50
2023-03-24T20:14:16.878Z,14.50
2023-03-24T20:16:45.559Z,14.50
2023-03-24T20:19:13.731Z,14.40
2023-03-24T20:21:42.126Z,14.40
2023-03-24T20:24:10.341Z,14.30
2023-03-24T20:26:38.521Z,14.20
2023-03-24T20:29:08.285Z,14.20
2023-03-24T20:31:41.648Z,14.20
2023-03-24T20:34:10.894Z,14.20
2023-03-24T20:36:39.993Z,14.10
2023-03-24T20:39:08.306Z,14.00
2023-03-24T20:41:36.693Z,14.00
2023-03-24T20:44:05.136Z,13.90
2023-03-24T20:46:35.603Z,13.80
2023-03-24T20:49:03.851Z,13.70
2023-03-24T20:51:32.151Z,13.70
2023-03-24T20:54:04.479Z,13.60
2023-03-24T20:56:33.652Z,13.60
2023-03-24T20:59:02.719Z,13.60
2023-03-24T21:01:36.346Z,13.60
2023-03-24T21:04:09.318Z,13.60
2023-03-24T21:06:39.341Z,13.60
2023-03-24T21:09:07.998Z,13.50
2023-03-24T21:11:39.089Z,13.50
2023-03-24T21:14:07.589Z,13.50
2023-03-24T21:16:37.659Z,13.50
2023-03-24T21:19:10.684Z,13.40
2023-03-24T21:21:39.259Z,13.40
2023-03-24T21:24:07.978Z,13.40
2023-03-24T21:26:36.183Z,13.40
2023-03-24T21:29:04.637Z,13.40
2023-03-24T21:31:32.799Z,13.30
2023-03-24T21:34:01.307Z,13.30
2023-03-24T21:36:35.366Z,13.20
2023-03-24T21:39:05.982Z,13.20
2023-03-24T21:41:35.680Z,13.20
2023-03-24T21:44:04.271Z,13.20
2023-03-24T21:46:32.539Z,13.00
2023-03-24T21:49:03.842Z,13.00
2023-03-24T21:51:36.581Z,12.90
2023-03-24T21:54:11.117Z,12.80
2023-03-24T21:56:40.479Z,12.70
2023-03-24T21:59:08.705Z,12.70
2023-03-24T22:01:37.517Z,12.70
2023-03-24T22:04:09.642Z,12.60
2023-03-24T22:06:39.482Z,12.50
2023-03-24T22:09:10.715Z,12.60
2023-03-24T22:11:42.659Z,12.60
2023-03-24T22:14:16.635Z,12.70
2023-03-24T22:16:45.668Z,12.70
2023-03-24T22:19:13.997Z,12.70
2023-03-24T22:21:43.525Z,12.60
2023-03-24T22:24:12.558Z,12.60
2023-03-24T22:26:42.641Z,12.60
2023-03-24T22:29:11.143Z,12.60
2023-03-24T22:31:43.678Z,12.60
2023-03-24T22:34:13.856Z,12.60
2023-03-24T22:36:49.389Z,12.50
2023-03-24T22:39:17.799Z,12.40
2023-03-24T22:41:45.982Z,12.50
2023-03-24T22:44:14.635Z,12.50
2023-03-24T22:46:42.788Z,12.50
2023-03-24T22:49:12.659Z,12.60
2023-03-24T22:51:40.829Z,12.50
2023-03-24T22:54:10.665Z,12.50
2023-03-24T22:56:39.019Z,12.30
2023-03-24T22:59:07.662Z,12.20
2023-03-24T23:01:36.006Z,12.00
2023-03-24T23:04:04.668Z,12.00
2023-03-24T23:06:33.059Z,12.10
2023-03-24T23:09:01.683Z,12.10
2023-03-24T23:11:34.645Z,12.00
2023-03-24T23:14:05.552Z,11.90
2023-03-24T23:16:38.700Z,11.90
2023-03-24T23:19:08.537Z,11.80
2023-03-24T23:21:37.694Z,11.80
2023-03-24T23:24:06.666Z,11.70
2023-03-24T23:26:36.705Z,11.70
2023-03-24T23:29:09.614Z,11.60
2023-03-24T23:31:37.828Z,11.60
2023-03-24T23:34:07.780Z,11.50
2023-03-24T23:36:36.580Z,11.50
2023-03-24T23:39:05.066Z,11.40
2023-03-24T23:41:33.683Z,11.40
2023-03-24T23:44:03.255Z,11.40
2023-03-24T23:46:33.827Z,11.50
2023-03-24T23:49:02.776Z,11.60
2023-03-24T23:51:30.863Z,11.60
2023-03-24T23:53:59.642Z,11.60
2023-03-24T23:56:30.813Z,11.60
2023-03-24T23:58:59.080Z,11.40
